Cataratas del Iguazú, Argentina

2:20 PM ART en Agosto 23, 2014 (GMT -0300)
Mayor D Carlos Eduardo Krause | Change Station
CLOSE
Current Station
Aeropuerto
Location: Iguazu,
Altura: 886 ft
Estaciones meteorológicas cercanas

Alt 886 ft 25.74 °S, 54.47 °W | Updated 20 minutes ago

Clear
Despejado
90 ° F
Sensación térmica 90 ° F
N
14
Viento Variable Viento desde NNE

Hoy
Alta -- | Baja -- ° F
--% Posibilidad de precipitaciones
Ayer
Alta -- | Baja -- ° F
Precip. -- pul
6:59 AM 6:22 PM
Creciente menguante, 3% visible
Presión 29.89 pul
Visibilidad -9999.0 Millas
Nubes
Índice de calor 90 ° F
Punto de rocío 61 ° F
Humedad 38%
Precipitaciones 0.00 pul
Espesor de la nieve No disponible.
UV No disponible.
Polen No disponible.
Calidad del aire No disponible.
Flu Activity No disponible.
METAR SARI 231700Z 02012KT CAVOK 32/16 Q1012

More Conditions Fewer Conditions

Presión 29.89 pul
Visibilidad -9999.0 Millas
Nubes
Índice de calor 90 ° F
Punto de rocío 61 ° F
Humedad 38%
Precipitaciones 0.00 pul
Espesor de la nieve No disponible.
UV No disponible.
Polen No disponible.
Calidad del aire No disponible.
Flu Activity No disponible.
METAR SARI 231700Z 02012KT CAVOK 32/16 Q1012

More Conditions Fewer Conditions

10-Day Weather Forecast

Almanac

Astronomía

Aug. 23, 2014 Salida Puesta
Hora real 6:59 AM ART 6:22 PM ART
Crepúsculo civil 6:35 AM ART 6:45 PM ART
Crepúsculo náutico 6:08 AM ART 7:12 PM ART
Crepúsculo astronómico 5:42 AM ART 7:39 PM ART
Luna 5:26 AM ART 4:54 PM ART
Horas de luz 12h 09m
Horas de luz
11h 23m
Tomorrow will be 1m 22s longer.
Creciente menguante, 3% of the Moon is Illuminated
Hoy
Creciente menguante
Ago 25
Nueva
Sep 2
Cuarto creciente
Sep 8
Luna llena
Sep 15
Cuarto menguante

Extremos de hoy

Máximos del país Bajas del país

Community

WunderPhotos

Upload Photos

1,746,534 ¡fotos cargadas!

WunderBlogs® & News

By Dr. Jeff Masters
Director of Meteorology, Weather Underground
By Kari Strenfel
Meteorologist, Weather Underground
By Christopher C. Burt
Weather Historian, Weather Underground
August 23, 2014
August 23, 2014
August 23, 2014

Nearby

Calidad del aire

Not available.

Grosos de nieve

Not available.

Actividad de terremotos

Ciudad Distance Mag. Tiempo y dato
No hay informes recientes de la actividad sísmica.
Magnitud mínima muestra es 2,5.

Temperaturas de aguas costeras

Lugar Temperatura
Sin partes meteorológicos de las estaciones

Estaciones meteorológicas cercanas